Time;durP1;ratioP1;P1;durP2;ratioP2;P2;SDS_P1;SDS_P2;PMS_P1;PMS_P2;Temp;Humidity;BMP_temperature;BMP_pressure;BME280_temperature;BME280_humidity;BME280_pressure;Samples;Min_cycle;Max_cycle;Signal;HPM_P1;HPM_P2
2022/05/28 00:00:36;;;;;;;4.50;1.40;;;;;;99835.59;;;;107624;1277;29683;-29
2022/05/28 00:03:03;;;;;;;4.70;1.50;;;;;;99832.48;;;;107658;1277;27283;-29
2022/05/28 00:05:31;;;;;;;4.60;1.40;;;;;;99835.70;;;;107618;1276;28757;-29
2022/05/28 00:07:58;;;;;;;4.20;1.70;;;;;;99834.38;;;;107657;1277;28650;-29
2022/05/28 00:10:25;;;;;;;5.30;1.50;;;;;;99836.05;;;;107523;1277;27764;-30
2022/05/28 00:12:51;;;;;;;4.40;1.90;;;;;;99835.64;;;;107639;1277;28209;-29
2022/05/28 00:15:18;;;;;;;2.70;1.20;;;;;;99839.83;;;;107653;1277;26199;-29
2022/05/28 00:17:44;;;;;;;4.20;1.40;;;;;;99840.05;;;;107648;1277;27421;-29
2022/05/28 00:20:16;;;;;;;5.40;1.70;;;;;;99842.73;;;;107653;1277;27654;-29
2022/05/28 00:22:43;;;;;;;3.90;1.40;;;;;;99840.13;;;;107644;1277;28092;-29
2022/05/28 00:25:15;;;;;;;3.40;1.20;;;;;;99836.91;;;;107671;1277;27421;-29
2022/05/28 00:27:42;;;;;;;3.60;1.40;;;;;;99834.60;;;;107670;1277;28658;-29
2022/05/28 00:30:12;;;;;;;3.20;1.30;;;;;;99834.70;;;;107647;1277;29582;-29
2022/05/28 00:32:41;;;;;;;3.80;1.30;;;;;;99837.38;;;;107662;1277;28702;-29
2022/05/28 00:35:15;;;;;;;4.50;1.50;;;;;;99840.06;;;;107552;1278;26466;-29
2022/05/28 00:37:44;;;;;;;3.60;1.40;;;;;;99840.09;;;;107665;1276;28763;-29
2022/05/28 00:40:17;;;;;;;3.30;1.10;;;;;;99836.01;;;;107650;1277;28658;-29
2022/05/28 00:42:43;;;;;;;3.50;1.20;;;;;;99833.71;;;;107661;1277;28664;-29
2022/05/28 00:45:10;;;;;;;4.10;1.30;;;;;;99833.70;;;;107642;1277;29954;-29
2022/05/28 00:47:45;;;;;;;3.90;1.20;;;;;;99832.75;;;;107647;1277;28711;-29
2022/05/28 00:50:12;;;;;;;3.20;1.30;;;;;;99831.67;;;;107636;1277;28670;-29
2022/05/28 00:52:40;;;;;;;4.10;1.30;;;;;;99827.71;;;;107647;1277;28277;-29
2022/05/28 00:55:08;;;;;;;3.50;1.10;;;;;;99822.70;;;;107640;1277;29886;-29
2022/05/28 00:57:38;;;;;;;3.20;1.10;;;;;;99824.59;;;;107658;1277;27511;-29
2022/05/28 01:00:10;;;;;;;3.20;1.20;;;;;;99820.21;;;;107652;1276;28748;-29
2022/05/28 01:02:53;;;;;;;3.30;1.40;;;;;;99820.69;;;;107660;1276;29175;-29
2022/05/28 01:05:44;;;;;;;;;;;;;;99819.85;;;;107671;1276;27544;-29
2022/05/28 01:08:15;;;;;;;3.90;1.10;;;;;;99819.46;;;;107621;1277;28709;-29
2022/05/28 01:11:07;;;;;;;3.80;1.20;;;;;;99816.36;;;;107640;1277;27518;-29
2022/05/28 01:13:51;;;;;;;3.80;1.10;;;;;;99816.02;;;;107675;1277;29116;-29
2022/05/28 01:16:32;;;;;;;2.90;1.10;;;;;;99817.33;;;;107646;1276;29891;-29
2022/05/28 01:19:16;;;;;;;3.80;1.30;;;;;;99817.35;;;;107643;1277;28676;-29
2022/05/28 01:21:53;;;;;;;3.50;1.10;;;;;;99811.08;;;;107650;1277;28572;-29
2022/05/28 01:24:45;;;;;;;2.90;1.00;;;;;;99811.81;;;;107611;1278;29554;-29
2022/05/28 01:27:19;;;;;;;4.30;1.30;;;;;;99811.60;;;;107647;1277;26625;-29
2022/05/28 01:29:52;;;;;;;2.80;1.00;;;;;;99813.08;;;;107672;1277;27519;-29
2022/05/28 01:32:19;;;;;;;3.00;1.00;;;;;;99810.43;;;;107629;1276;28301;-29
2022/05/28 01:34:47;;;;;;;3.00;1.10;;;;;;99807.69;;;;107605;1276;29459;-29
2022/05/28 01:37:14;;;;;;;3.10;1.10;;;;;;99807.27;;;;107636;1277;29206;-29
2022/05/28 01:39:43;;;;;;;2.90;1.00;;;;;;99805.64;;;;107532;1277;27298;-29
2022/05/28 01:42:10;;;;;;;2.90;1.00;;;;;;99798.72;;;;107538;1278;27541;-29
2022/05/28 01:44:38;;;;;;;3.90;1.20;;;;;;99798.58;;;;107644;1276;29752;-29
2022/05/28 01:47:05;;;;;;;2.90;1.00;;;;;;99799.55;;;;107554;1278;26179;-29
2022/05/28 01:49:33;;;;;;;3.10;0.90;;;;;;99799.44;;;;107625;1277;29735;-29
2022/05/28 01:52:01;;;;;;;4.10;1.30;;;;;;99801.53;;;;107539;1277;26200;-29
2022/05/28 01:54:33;;;;;;;3.20;1.00;;;;;;99798.01;;;;107614;1277;28706;-29
2022/05/28 01:57:00;;;;;;;4.00;1.20;;;;;;99793.20;;;;107624;1278;28655;-29
2022/05/28 01:59:33;;;;;;;2.50;1.00;;;;;;99792.91;;;;107601;1278;29257;-29
2022/05/28 02:02:03;;;;;;;3.00;0.90;;;;;;99796.39;;;;107627;1277;26151;-28
2022/05/28 02:04:32;;;;;;;3.50;0.90;;;;;;99795.81;;;;107607;1278;28770;-27
2022/05/28 02:06:58;;;;;;;3.70;1.10;;;;;;99797.30;;;;107656;1277;28790;-28
2022/05/28 02:09:31;;;;;;;3.10;1.20;;;;;;99794.10;;;;107627;1278;28700;-28
2022/05/28 02:12:32;;;;;;;2.30;0.90;;;;;;99789.94;;;;107560;1278;28667;-28
2022/05/28 02:15:19;;;;;;;4.20;1.10;;;;;;99790.33;;;;107621;1277;28689;-28
2022/05/28 02:18:17;;;;;;;2.50;0.80;;;;;;99784.86;;;;107621;1278;28652;-28
2022/05/28 02:20:57;;;;;;;2.70;0.80;;;;;;99780.96;;;;107604;1278;28807;-28
2022/05/28 02:23:45;;;;;;;3.30;0.90;;;;;;99780.09;;;;107511;1277;26462;-28
2022/05/28 02:26:22;;;;;;;3.30;0.90;;;;;;99781.06;;;;107602;1278;28494;-28
2022/05/28 02:28:49;;;;;;;3.20;1.00;;;;;;99774.02;;;;107629;1277;27714;-28
2022/05/28 02:31:25;;;;;;;2.70;0.90;;;;;;99778.65;;;;107603;1278;27833;-28
2022/05/28 02:33:51;;;;;;;2.90;1.00;;;;;;99772.89;;;;107450;1277;29825;-29
2022/05/28 02:36:18;;;;;;;2.60;1.00;;;;;;99776.45;;;;107509;1277;26750;-29
2022/05/28 02:38:45;;;;;;;3.40;0.80;;;;;;99773.73;;;;107452;1281;28715;-29
2022/05/28 02:41:12;;;;;;;2.90;0.90;;;;;;99775.71;;;;107521;1282;28670;-29
2022/05/28 02:43:39;;;;;;;3.00;0.90;;;;;;99773.16;;;;107540;1278;27501;-29
2022/05/28 02:46:07;;;;;;;2.00;0.80;;;;;;99769.38;;;;107508;1278;29452;-29
2022/05/28 02:48:35;;;;;;;3.30;1.00;;;;;;99767.20;;;;107521;1278;29586;-29
2022/05/28 02:51:20;;;;;;;2.90;0.90;;;;;;99761.92;;;;107528;1277;28492;-29
2022/05/28 02:53:52;;;;;;;2.50;0.90;;;;;;99763.86;;;;107522;1278;29607;-29
2022/05/28 02:56:20;;;;;;;2.70;0.90;;;;;;99766.15;;;;107538;1278;26466;-30
2022/05/28 02:58:47;;;;;;;2.40;0.80;;;;;;99762.65;;;;107542;1278;28746;-29
2022/05/28 03:01:26;;;;;;;2.40;0.80;;;;;;99766.11;;;;107519;1278;28651;-29
2022/05/28 03:03:54;;;;;;;3.20;0.90;;;;;;99767.55;;;;107549;1281;27358;-29
2022/05/28 03:06:22;;;;;;;2.30;0.80;;;;;;99768.14;;;;107530;1278;27739;-29
2022/05/28 03:08:48;;;;;;;3.70;1.10;;;;;;99773.75;;;;107514;1278;27644;-29
2022/05/28 03:11:15;;;;;;;3.40;0.90;;;;;;99772.36;;;;107547;1278;27700;-29
2022/05/28 03:13:42;;;;;;;2.90;0.90;;;;;;99769.27;;;;107536;1278;27528;-29
2022/05/28 03:16:09;;;;;;;3.00;0.90;;;;;;99769.61;;;;107528;1278;27407;-29
2022/05/28 03:18:36;;;;;;;2.30;0.70;;;;;;99771.16;;;;107535;1278;28653;-29
2022/05/28 03:21:04;;;;;;;2.70;0.70;;;;;;99765.42;;;;107456;1281;28621;-29
2022/05/28 03:23:31;;;;;;;3.00;0.90;;;;;;99766.36;;;;107560;1278;29682;-29
2022/05/28 03:26:08;;;;;;;2.40;0.80;;;;;;99765.90;;;;107557;1278;28689;-29
2022/05/28 03:28:35;;;;;;;2.90;1.00;;;;;;99765.73;;;;107513;1278;26708;-29
2022/05/28 03:31:02;;;;;;;2.60;0.70;;;;;;99767.19;;;;107520;1277;29565;-29
2022/05/28 03:33:28;;;;;;;2.70;0.80;;;;;;99761.89;;;;107518;1278;27557;-29
2022/05/28 03:35:55;;;;;;;3.30;0.80;;;;;;99760.01;;;;107530;1277;28089;-29
2022/05/28 03:38:21;;;;;;;2.20;0.80;;;;;;99757.98;;;;107497;1278;29390;-29
2022/05/28 03:40:49;;;;;;;3.20;1.00;;;;;;99757.15;;;;107542;1278;29337;-29
2022/05/28 03:43:15;;;;;;;2.20;0.80;;;;;;99758.95;;;;107522;1278;28590;-29
2022/05/28 03:45:42;;;;;;;2.40;0.80;;;;;;99757.36;;;;107534;1277;27298;-29
2022/05/28 03:48:11;;;;;;;2.90;0.80;;;;;;99759.65;;;;107541;1278;27535;-29
2022/05/28 03:50:37;;;;;;;2.50;0.80;;;;;;99763.45;;;;107455;1281;28560;-29
2022/05/28 03:53:04;;;;;;;2.80;0.80;;;;;;99765.70;;;;107504;1278;28743;-29
2022/05/28 03:55:31;;;;;;;2.80;0.90;;;;;;99768.33;;;;107530;1278;29726;-29
2022/05/28 03:57:57;;;;;;;4.00;0.90;;;;;;99761.36;;;;107554;1278;28667;-29
2022/05/28 04:00:24;;;;;;;2.30;0.80;;;;;;99762.37;;;;107534;1278;28675;-29
2022/05/28 04:02:50;;;;;;;4.90;0.90;;;;;;99761.48;;;;107545;1277;29244;-29
2022/05/28 04:05:18;;;;;;;2.10;0.90;;;;;;99763.29;;;;107530;1278;28566;-29
2022/05/28 04:07:45;;;;;;;2.90;0.80;;;;;;99763.36;;;;107464;1281;28769;-29
2022/05/28 04:10:11;;;;;;;2.30;0.70;;;;;;99764.08;;;;107504;1278;29597;-29
2022/05/28 04:12:38;;;;;;;2.30;0.80;;;;;;99768.31;;;;107530;1278;28845;-29
2022/05/28 04:15:06;;;;;;;2.70;0.80;;;;;;99766.48;;;;107528;1278;26092;-29
2022/05/28 04:17:33;;;;;;;3.20;0.80;;;;;;99769.96;;;;107543;1278;27480;-29
2022/05/28 04:20:00;;;;;;;3.20;0.80;;;;;;99765.83;;;;107536;1278;28681;-29
2022/05/28 04:22:26;;;;;;;2.10;0.80;;;;;;99764.21;;;;107542;1278;27294;-29
2022/05/28 04:24:53;;;;;;;3.10;0.90;;;;;;99767.16;;;;107536;1278;28666;-29
2022/05/28 04:27:20;;;;;;;2.60;0.90;;;;;;99761.61;;;;107463;1281;28723;-29
2022/05/28 04:29:46;;;;;;;2.70;0.70;;;;;;99763.47;;;;107488;1278;28650;-29
2022/05/28 04:32:13;;;;;;;2.20;0.80;;;;;;99765.31;;;;107542;1278;26631;-29
2022/05/28 04:34:40;;;;;;;2.60;0.90;;;;;;99767.64;;;;107510;1280;28835;-29
2022/05/28 04:37:07;;;;;;;3.90;1.30;;;;;;99765.52;;;;107536;1277;28801;-29
2022/05/28 04:39:34;;;;;;;3.50;1.00;;;;;;99761.49;;;;107543;1278;27560;-29
2022/05/28 04:42:00;;;;;;;3.00;0.90;;;;;;99759.80;;;;107536;1277;26085;-29
2022/05/28 04:44:27;;;;;;;3.20;0.90;;;;;;99760.60;;;;107544;1277;27549;-29
2022/05/28 04:46:54;;;;;;;2.50;0.90;;;;;;99761.73;;;;107572;1277;26749;-29
2022/05/28 04:49:20;;;;;;;3.00;0.80;;;;;;99766.71;;;;107532;1278;28777;-29
2022/05/28 04:51:47;;;;;;;2.20;0.70;;;;;;99764.95;;;;107530;1277;28745;-29
2022/05/28 04:54:13;;;;;;;2.40;0.80;;;;;;99768.34;;;;107549;1278;28653;-29
2022/05/28 04:56:40;;;;;;;2.30;0.90;;;;;;99762.88;;;;107546;1277;28698;-29
2022/05/28 04:59:07;;;;;;;4.50;1.00;;;;;;99766.16;;;;107530;1278;26188;-29
2022/05/28 05:01:33;;;;;;;2.60;0.90;;;;;;99769.27;;;;107534;1278;28112;-29
2022/05/28 05:04:00;;;;;;;3.40;1.10;;;;;;99772.80;;;;107538;1278;28768;-29
2022/05/28 05:06:27;;;;;;;2.30;0.80;;;;;;99772.74;;;;107534;1278;28804;-29
2022/05/28 05:08:53;;;;;;;2.10;0.70;;;;;;99772.60;;;;107531;1277;28790;-29
2022/05/28 05:11:20;;;;;;;3.10;1.10;;;;;;99770.40;;;;107520;1277;26550;-29
2022/05/28 05:13:46;;;;;;;1.90;0.70;;;;;;99773.13;;;;107541;1277;28464;-29
2022/05/28 05:16:16;;;;;;;4.20;1.00;;;;;;99772.72;;;;107526;1278;28557;-29
2022/05/28 05:18:43;;;;;;;2.40;0.80;;;;;;99774.08;;;;107549;1278;28627;-29
2022/05/28 05:21:13;;;;;;;2.30;0.70;;;;;;99777.02;;;;107539;1277;28771;-29
2022/05/28 05:23:41;;;;;;;2.90;0.90;;;;;;99774.33;;;;107529;1277;28720;-28
2022/05/28 05:26:15;;;;;;;2.40;0.80;;;;;;99771.99;;;;107360;1277;220887;-28
2022/05/28 05:28:42;;;;;;;2.90;0.90;;;;;;99767.00;;;;107496;1277;27567;-29
2022/05/28 05:31:09;;;;;;;3.50;0.80;;;;;;99781.13;;;;107520;1277;28725;-29
2022/05/28 05:33:36;;;;;;;2.00;0.70;;;;;;99777.27;;;;107517;1277;28575;-29
2022/05/28 05:36:04;;;;;;;2.60;0.80;;;;;;99778.14;;;;107535;1277;28675;-29
2022/05/28 05:38:30;;;;;;;3.00;0.80;;;;;;99774.19;;;;107445;1278;29831;-29
2022/05/28 05:40:57;;;;;;;3.80;1.00;;;;;;99779.55;;;;107519;1278;28611;-29
2022/05/28 05:43:23;;;;;;;2.80;0.90;;;;;;99777.98;;;;107531;1277;27292;-30
2022/05/28 05:45:57;;;;;;;4.10;1.00;;;;;;99776.90;;;;107508;1278;28576;-29
2022/05/28 05:48:24;;;;;;;3.30;0.70;;;;;;99779.00;;;;107538;1277;27421;-29
2022/05/28 05:50:51;;;;;;;3.40;0.90;;;;;;99777.41;;;;107566;1278;28397;-29
2022/05/28 05:53:19;;;;;;;3.10;1.00;;;;;;99776.94;;;;107418;1278;28089;-29
2022/05/28 05:55:46;;;;;;;3.20;0.90;;;;;;99777.70;;;;107544;1277;29513;-29
2022/05/28 05:58:13;;;;;;;2.50;1.20;;;;;;99784.15;;;;107541;1277;28707;-29
2022/05/28 06:00:41;;;;;;;4.10;1.10;;;;;;99779.75;;;;107550;1278;27500;-29
2022/05/28 06:03:07;;;;;;;3.00;0.90;;;;;;99777.73;;;;107550;1277;29481;-29
2022/05/28 06:05:34;;;;;;;3.20;1.00;;;;;;99780.43;;;;107542;1278;27544;-29
2022/05/28 06:08:01;;;;;;;2.40;1.00;;;;;;99778.52;;;;107534;1277;28630;-29
2022/05/28 06:10:28;;;;;;;2.30;1.00;;;;;;99766.60;;;;107516;1278;28687;-29
2022/05/28 06:12:55;;;;;;;2.60;1.00;;;;;;99773.67;;;;107543;1277;28918;-29
2022/05/28 06:15:21;;;;;;;2.80;1.10;;;;;;99764.91;;;;107557;1277;29645;-29
2022/05/28 06:17:48;;;;;;;3.00;1.10;;;;;;99762.41;;;;107532;1277;27579;-29
2022/05/28 06:20:15;;;;;;;2.90;1.10;;;;;;99766.52;;;;107527;1278;26682;-29
2022/05/28 06:22:42;;;;;;;3.20;1.20;;;;;;99766.01;;;;107519;1277;29495;-29
2022/05/28 06:25:10;;;;;;;2.90;1.10;;;;;;99757.52;;;;107390;1279;28747;-29
2022/05/28 06:27:37;;;;;;;3.30;1.00;;;;;;99757.73;;;;107572;1277;28222;-29
2022/05/28 06:30:07;;;;;;;3.40;1.10;;;;;;99755.56;;;;107563;1277;28744;-29
2022/05/28 06:32:34;;;;;;;3.20;1.20;;;;;;99760.02;;;;107540;1278;26571;-29
2022/05/28 06:35:01;;;;;;;3.50;1.20;;;;;;99755.13;;;;107532;1277;28810;-28
2022/05/28 06:37:28;;;;;;;4.10;1.10;;;;;;99757.65;;;;107527;1278;27405;-28
2022/05/28 06:39:54;;;;;;;3.20;1.10;;;;;;99755.41;;;;107521;1278;28462;-28
2022/05/28 06:42:21;;;;;;;2.90;1.10;;;;;;99755.91;;;;107520;1278;28745;-28
2022/05/28 06:44:48;;;;;;;2.20;0.90;;;;;;99757.89;;;;107399;1278;26034;-28
2022/05/28 06:47:15;;;;;;;3.30;1.30;;;;;;99752.33;;;;107506;1277;27398;-28
2022/05/28 06:49:42;;;;;;;4.60;1.00;;;;;;99748.02;;;;107548;1278;28535;-28
2022/05/28 06:52:09;;;;;;;3.70;1.30;;;;;;99755.77;;;;107522;1278;29744;-28
2022/05/28 06:54:35;;;;;;;3.00;1.00;;;;;;99753.92;;;;107538;1278;28747;-28
2022/05/28 06:57:02;;;;;;;4.10;1.50;;;;;;99745.65;;;;107534;1277;26170;-28
2022/05/28 06:59:28;;;;;;;3.90;1.70;;;;;;99748.58;;;;107506;1278;27607;-28
2022/05/28 07:01:56;;;;;;;3.80;2.00;;;;;;99747.80;;;;107547;1278;28688;-28
2022/05/28 07:04:22;;;;;;;5.40;2.40;;;;;;99748.67;;;;107545;1277;28589;-28
2022/05/28 07:06:50;;;;;;;4.80;3.60;;;;;;99743.45;;;;107518;1278;29589;-28
2022/05/28 07:09:17;;;;;;;6.10;3.30;;;;;;99748.31;;;;107521;1277;28688;-28
2022/05/28 07:11:43;;;;;;;7.10;3.80;;;;;;99741.81;;;;107518;1278;28631;-28
2022/05/28 07:14:10;;;;;;;6.90;3.80;;;;;;99749.20;;;;107410;1277;27413;-28
2022/05/28 07:16:36;;;;;;;7.50;4.50;;;;;;99754.95;;;;107515;1278;28764;-28
2022/05/28 07:19:04;;;;;;;7.10;4.50;;;;;;99751.13;;;;107390;1277;28579;-28
2022/05/28 07:21:30;;;;;;;7.10;4.50;;;;;;99757.66;;;;107529;1277;27479;-27
2022/05/28 07:23:57;;;;;;;6.50;4.30;;;;;;99756.60;;;;107377;1278;28783;-29
2022/05/28 07:26:24;;;;;;;6.50;4.60;;;;;;99754.98;;;;107526;1278;29224;-28
2022/05/28 07:28:51;;;;;;;6.20;4.00;;;;;;99763.45;;;;107540;1277;28688;-27
2022/05/28 07:31:20;;;;;;;6.00;4.20;;;;;;99766.04;;;;107547;1278;28705;-29
2022/05/28 07:33:48;;;;;;;6.50;4.20;;;;;;99757.27;;;;107531;1277;28681;-29
2022/05/28 07:36:20;;;;;;;7.00;3.70;;;;;;99762.31;;;;107387;1279;27538;-29
2022/05/28 07:38:48;;;;;;;6.50;3.90;;;;;;99757.05;;;;107558;1277;28668;-29
2022/05/28 07:41:22;;;;;;;6.80;3.80;;;;;;99753.17;;;;107582;1277;28688;-30
2022/05/28 07:43:51;;;;;;;5.80;3.30;;;;;;99761.75;;;;107524;1277;27591;-29
2022/05/28 07:46:21;;;;;;;5.80;3.50;;;;;;99755.52;;;;107566;1278;28710;-29
2022/05/28 07:48:49;;;;;;;4.60;2.70;;;;;;99761.87;;;;107536;1278;27465;-29
2022/05/28 07:51:16;;;;;;;4.50;2.40;;;;;;99757.13;;;;107554;1278;27515;-29
2022/05/28 07:53:43;;;;;;;6.10;3.00;;;;;;99754.02;;;;107556;1277;28224;-29
2022/05/28 07:56:11;;;;;;;6.50;2.60;;;;;;99767.38;;;;107527;1277;27604;-29
2022/05/28 07:58:38;;;;;;;4.50;2.20;;;;;;99759.63;;;;107564;1277;28653;-29
2022/05/28 08:01:06;;;;;;;5.50;2.20;;;;;;99757.60;;;;107435;1279;28626;-28
2022/05/28 08:03:34;;;;;;;5.90;2.10;;;;;;99753.25;;;;107564;1277;28739;-29
2022/05/28 08:06:01;;;;;;;5.40;2.50;;;;;;99754.47;;;;107589;1277;27529;-29
2022/05/28 08:08:28;;;;;;;4.50;1.90;;;;;;99754.24;;;;107510;1278;27369;-28
2022/05/28 08:10:55;;;;;;;4.20;2.00;;;;;;99754.55;;;;107543;1278;28655;-28
2022/05/28 08:13:24;;;;;;;5.30;2.20;;;;;;99756.70;;;;107523;1278;28735;-28
2022/05/28 08:15:53;;;;;;;4.50;2.10;;;;;;99757.46;;;;107579;1277;26588;-28
2022/05/28 08:18:23;;;;;;;3.60;1.90;;;;;;99760.88;;;;107571;1277;29190;-28
2022/05/28 08:23:38;;;;;;;5.00;2.30;;;;;;99751.65;;;;107525;1277;28640;-28
2022/05/28 08:26:06;;;;;;;4.60;1.90;;;;;;99746.60;;;;107537;1277;29594;-29
2022/05/28 08:28:35;;;;;;;5.20;2.00;;;;;;99751.20;;;;107532;1277;28773;-29
2022/05/28 08:31:02;;;;;;;4.90;1.90;;;;;;99761.84;;;;107484;1277;28249;-28
2022/05/28 08:33:29;;;;;;;4.80;2.00;;;;;;99771.98;;;;107537;1277;29720;-28
2022/05/28 08:35:56;;;;;;;6.20;2.10;;;;;;99762.70;;;;107528;1278;29651;-28
2022/05/28 08:38:24;;;;;;;4.90;2.00;;;;;;99762.84;;;;107525;1278;29521;-28
2022/05/28 08:41:02;;;;;;;4.80;1.70;;;;;;99757.95;;;;107556;1278;27691;-28
2022/05/28 08:43:34;;;;;;;4.10;1.90;;;;;;99748.70;;;;107534;1277;29877;-28
2022/05/28 08:46:03;;;;;;;4.50;1.80;;;;;;99745.27;;;;107536;1277;28835;-28
2022/05/28 08:48:53;;;;;;;3.70;1.70;;;;;;99735.04;;;;107564;1278;28540;-28
2022/05/28 08:51:50;;;;;;;4.40;1.60;;;;;;99735.55;;;;107547;1277;28661;-28
2022/05/28 08:54:35;;;;;;;4.00;1.70;;;;;;99734.94;;;;107540;1278;27520;-28
2022/05/28 08:57:15;;;;;;;3.30;1.40;;;;;;99738.63;;;;107542;1278;29740;-28
2022/05/28 08:59:49;;;;;;;4.50;1.50;;;;;;99737.62;;;;107506;1278;28738;-30
2022/05/28 09:02:24;;;;;;;3.20;1.30;;;;;;99731.41;;;;107419;1277;27384;-30
2022/05/28 09:04:53;;;;;;;4.20;1.60;;;;;;99745.20;;;;107542;1277;27468;-29
2022/05/28 09:07:20;;;;;;;3.50;1.40;;;;;;99744.40;;;;107404;1279;28708;-29
2022/05/28 09:09:49;;;;;;;4.70;1.60;;;;;;99742.48;;;;107536;1277;27507;-29
2022/05/28 09:12:30;;;;;;;3.60;1.20;;;;;;99748.65;;;;107542;1278;27438;-30
2022/05/28 09:14:58;;;;;;;3.30;1.20;;;;;;99751.13;;;;107556;1278;28656;-29
2022/05/28 09:17:28;;;;;;;3.70;1.20;;;;;;99742.99;;;;107420;1279;28679;-29
2022/05/28 09:20:05;;;;;;;3.60;1.10;;;;;;99748.61;;;;107555;1277;29622;-30
2022/05/28 09:22:36;;;;;;;3.50;1.10;;;;;;99735.04;;;;107517;1277;30193;-30
2022/05/28 09:25:04;;;;;;;4.10;1.00;;;;;;99742.69;;;;107517;1278;27287;-30
2022/05/28 09:27:51;;;;;;;2.80;1.00;;;;;;99743.02;;;;107560;1277;28644;-30
2022/05/28 09:30:30;;;;;;;4.40;1.10;;;;;;99745.75;;;;107525;1277;29537;-30
2022/05/28 09:33:25;;;;;;;2.90;1.30;;;;;;99735.67;;;;107520;1278;27408;-29
2022/05/28 09:36:22;;;;;;;4.40;1.20;;;;;;99736.98;;;;107530;1278;28816;-30
2022/05/28 09:39:29;;;;;;;2.90;1.00;;;;;;99727.93;;;;107520;1278;28713;-30
2022/05/28 09:42:26;;;;;;;3.80;1.20;;;;;;99725.20;;;;107534;1278;27445;-30
2022/05/28 09:45:08;;;;;;;3.50;1.20;;;;;;99726.33;;;;107527;1277;27519;-30
2022/05/28 09:47:53;;;;;;;3.80;1.10;;;;;;99729.92;;;;107502;1277;28648;-30
2022/05/28 09:50:42;;;;;;;3.00;1.00;;;;;;99724.52;;;;107566;1278;29113;-30
2022/05/28 09:56:17;;;;;;;3.40;1.10;;;;;;99727.68;;;;107522;1277;27268;-30
2022/05/28 09:58:43;;;;;;;2.50;0.90;;;;;;99729.42;;;;107508;1278;27464;-30
2022/05/28 10:01:19;;;;;;;2.30;0.90;;;;;;99722.52;;;;107529;1277;27578;-30
2022/05/28 10:06:33;;;;;;;3.20;1.00;;;;;;99736.38;;;;107525;1277;27387;-30
2022/05/28 10:09:14;;;;;;;4.70;1.00;;;;;;99764.19;;;;107519;1279;28610;-30
2022/05/28 10:11:58;;;;;;;3.30;1.10;;;;;;99752.73;;;;107533;1278;27547;-30
2022/05/28 10:14:30;;;;;;;3.60;1.10;;;;;;99754.58;;;;107398;1278;27517;-30
2022/05/28 10:17:02;;;;;;;4.00;1.20;;;;;;99749.76;;;;107414;1278;28798;-30
2022/05/28 10:19:39;;;;;;;4.10;1.20;;;;;;99762.92;;;;107543;1278;29720;-30
2022/05/28 10:22:16;;;;;;;5.50;1.20;;;;;;99762.61;;;;107530;1278;28667;-30
2022/05/28 10:24:46;;;;;;;3.50;1.00;;;;;;99766.77;;;;107541;1278;27388;-30
2022/05/28 10:27:54;;;;;;;3.30;1.00;;;;;;99776.95;;;;107432;1278;29247;-30
2022/05/28 10:30:43;;;;;;;3.10;0.90;;;;;;99776.84;;;;107493;1278;28855;-30
2022/05/28 10:33:19;;;;;;;3.20;1.00;;;;;;99776.52;;;;107433;1278;28591;-30
2022/05/28 10:35:48;;;;;;;2.90;1.20;;;;;;99777.02;;;;107558;1278;28716;-30
2022/05/28 10:38:21;;;;;;;3.40;1.10;;;;;;99772.64;;;;107442;1279;28847;-30
2022/05/28 10:40:57;;;;;;;3.20;1.00;;;;;;99776.43;;;;107535;1279;29023;-30
2022/05/28 10:43:32;;;;;;;2.50;0.90;;;;;;99783.46;;;;107548;1278;27822;-30
2022/05/28 10:46:14;;;;;;;4.40;0.90;;;;;;99786.56;;;;107560;1278;28597;-30
2022/05/28 10:48:59;;;;;;;2.70;1.00;;;;;;99784.82;;;;107509;1278;28819;-30
2022/05/28 10:51:59;;;;;;;2.40;1.00;;;;;;99780.15;;;;107536;1278;27559;-30
2022/05/28 10:54:56;;;;;;;3.20;1.00;;;;;;99776.04;;;;107535;1277;28243;-30
2022/05/28 10:57:57;;;;;;;3.20;0.90;;;;;;99782.07;;;;107551;1277;28488;-30
2022/05/28 11:00:37;;;;;;;2.50;0.90;;;;;;99783.38;;;;107535;1278;26474;-30
2022/05/28 11:03:55;;;;;;;3.80;1.10;;;;;;99792.20;;;;107526;1276;28705;-30
2022/05/28 11:06:55;;;;;;;3.00;1.00;;;;;;99789.73;;;;107256;1279;29341;-30
2022/05/28 11:09:45;;;;;;;3.90;0.80;;;;;;99792.25;;;;107441;1279;28701;-30
2022/05/28 11:12:30;;;;;;;3.70;0.90;;;;;;99795.91;;;;107505;1278;27270;-30
2022/05/28 11:15:28;;;;;;;2.90;1.00;;;;;;99802.60;;;;107527;1277;28553;-30
2022/05/28 11:18:03;;;;;;;2.10;0.90;;;;;;99819.02;;;;107528;1277;28688;-30
2022/05/28 11:21:01;;;;;;;2.50;0.90;;;;;;99806.02;;;;107512;1278;28717;-30
2022/05/28 11:23:45;;;;;;;2.70;0.80;;;;;;99805.93;;;;107504;1278;27454;-30
2022/05/28 11:26:31;;;;;;;3.30;0.90;;;;;;99807.13;;;;107510;1277;27572;-30
2022/05/28 11:29:26;;;;;;;2.90;0.70;;;;;;99803.58;;;;107530;1278;29757;-30
2022/05/28 11:32:00;;;;;;;2.10;0.70;;;;;;99803.12;;;;107502;1278;28534;-30
2022/05/28 11:34:49;;;;;;;2.10;0.60;;;;;;99801.80;;;;107536;1277;27403;-30
2022/05/28 11:37:29;;;;;;;2.50;0.70;;;;;;99803.59;;;;107541;1277;28577;-30
2022/05/28 11:39:59;;;;;;;3.60;0.90;;;;;;99806.98;;;;107530;1278;27533;-30
2022/05/28 11:42:47;;;;;;;3.70;0.80;;;;;;99803.30;;;;107507;1279;28863;-29
2022/05/28 11:45:32;;;;;;;2.10;0.70;;;;;;99800.42;;;;107549;1278;28506;-30
2022/05/28 11:48:16;;;;;;;2.50;0.80;;;;;;99800.42;;;;107521;1278;26513;-30
2022/05/28 11:53:43;;;;;;;2.20;0.70;;;;;;99794.77;;;;107508;1277;28796;-30
2022/05/28 11:56:18;;;;;;;2.50;0.70;;;;;;99789.57;;;;107371;1278;27361;-30
2022/05/28 11:58:49;;;;;;;3.20;0.70;;;;;;99776.48;;;;107497;1277;28696;-30
2022/05/28 12:01:24;;;;;;;2.10;0.70;;;;;;99765.23;;;;107518;1278;29016;-30
2022/05/28 12:03:52;;;;;;;2.10;0.60;;;;;;99768.11;;;;107547;1278;27629;-30
2022/05/28 12:06:37;;;;;;;2.50;0.70;;;;;;99767.93;;;;107472;1278;28779;-30
2022/05/28 12:09:16;;;;;;;2.00;0.60;;;;;;99762.45;;;;107552;1278;28578;-30
2022/05/28 12:12:13;;;;;;;2.50;0.70;;;;;;99773.17;;;;107549;1278;29507;-30
2022/05/28 12:14:44;;;;;;;1.90;0.80;;;;;;99772.36;;;;107544;1278;28524;-30
2022/05/28 12:17:32;;;;;;;3.50;0.80;;;;;;99773.19;;;;107475;1279;29439;-30
2022/05/28 12:20:04;;;;;;;1.80;0.70;;;;;;99767.41;;;;107533;1278;28744;-30
2022/05/28 12:22:39;;;;;;;2.30;0.60;;;;;;99769.23;;;;107533;1277;28642;-29
2022/05/28 12:25:29;;;;;;;1.70;0.60;;;;;;99772.95;;;;107540;1278;28731;-29
2022/05/28 12:27:55;;;;;;;2.10;0.60;;;;;;99779.31;;;;107514;1277;27289;-29
2022/05/28 12:30:39;;;;;;;2.40;0.70;;;;;;99774.56;;;;107541;1277;27533;-29
2022/05/28 12:33:46;;;;;;;1.60;0.60;;;;;;99770.81;;;;107503;1278;28700;-29
2022/05/28 12:36:26;;;;;;;2.90;0.70;;;;;;99764.11;;;;107516;1278;27564;-29
2022/05/28 12:39:16;;;;;;;2.70;0.70;;;;;;99759.59;;;;107532;1278;27534;-29
2022/05/28 12:41:55;;;;;;;2.00;0.70;;;;;;99759.81;;;;107213;1279;29744;-29
2022/05/28 12:44:24;;;;;;;1.10;0.60;;;;;;99763.23;;;;107512;1278;28561;-29
2022/05/28 12:46:59;;;;;;;1.60;0.60;;;;;;99763.92;;;;107517;1279;27636;-29
2022/05/28 12:49:36;;;;;;;1.40;0.60;;;;;;99766.44;;;;107544;1278;28682;-29
2022/05/28 12:52:42;;;;;;;1.30;0.60;;;;;;99762.33;;;;107504;1278;27422;-29
2022/05/28 12:55:36;;;;;;;2.00;0.60;;;;;;99763.12;;;;107415;1279;29660;-29
2022/05/28 12:58:25;;;;;;;1.90;0.60;;;;;;99770.94;;;;107541;1277;29586;-29
2022/05/28 13:01:05;;;;;;;2.60;0.70;;;;;;99782.00;;;;107535;1278;28755;-29
2022/05/28 13:03:41;;;;;;;2.10;0.80;;;;;;99784.16;;;;107547;1278;27266;-29
2022/05/28 13:06:39;;;;;;;2.20;0.70;;;;;;99776.25;;;;107550;1278;28591;-29
2022/05/28 13:09:08;;;;;;;2.20;0.70;;;;;;99776.95;;;;107456;1279;27170;-29
2022/05/28 13:11:57;;;;;;;2.20;0.60;;;;;;99771.98;;;;107558;1277;28688;-29
2022/05/28 13:14:32;;;;;;;2.40;0.90;;;;;;99768.20;;;;107521;1277;27630;-29
2022/05/28 13:17:23;;;;;;;2.00;0.70;;;;;;99766.19;;;;107533;1277;28644;-29
2022/05/28 13:20:15;;;;;;;2.00;0.70;;;;;;99770.19;;;;107439;1278;28727;-29
2022/05/28 13:22:53;;;;;;;2.10;0.70;;;;;;99774.48;;;;107539;1278;26451;-29
2022/05/28 13:25:59;;;;;;;1.40;0.60;;;;;;99771.63;;;;107527;1277;28635;-30
2022/05/28 13:28:28;;;;;;;1.80;0.70;;;;;;99772.66;;;;107236;1279;28753;-30
2022/05/28 13:31:00;;;;;;;1.60;0.60;;;;;;99777.05;;;;107529;1277;28717;-30
2022/05/28 13:33:33;;;;;;;3.00;0.90;;;;;;99776.20;;;;107529;1278;27372;-30
2022/05/28 13:36:01;;;;;;;1.90;0.70;;;;;;99781.92;;;;107445;1277;29299;-30
2022/05/28 13:38:32;;;;;;;1.90;0.60;;;;;;99780.15;;;;107472;1278;27535;-30
2022/05/28 13:41:03;;;;;;;2.60;0.60;;;;;;99779.44;;;;107533;1278;28810;-30